Time;durP1;ratioP1;P1;durP2;ratioP2;P2;SDS_P1;SDS_P2;PMS_P1;PMS_P2;Temp;Humidity;BMP_temperature;BMP_pressure;BME280_temperature;BME280_humidity;BME280_pressure;Samples;Min_cycle;Max_cycle;Signal;HPM_P1;HPM_P2
2021/04/18 00:00:57;;;;;;;0.50;0.40;;;14.40;27.60;;;;;;4373931;32;20097;-39
2021/04/18 00:03:24;;;;;;;1.05;0.55;;;14.30;27.60;;;;;;4373161;32;20089;-38
2021/04/18 00:05:50;;;;;;;0.45;0.10;;;14.30;27.70;;;;;;4374080;32;20051;-38
2021/04/18 00:08:18;;;;;;;1.65;0.52;;;14.20;27.70;;;;;;4372696;32;20062;-38
2021/04/18 00:10:44;;;;;;;0.77;0.20;;;14.10;27.70;;;;;;4372314;32;20100;-38
2021/04/18 00:13:13;;;;;;;1.33;0.60;;;14.00;27.90;;;;;;4360114;32;20084;-38
2021/04/18 00:15:42;;;;;;;5.50;0.55;;;13.90;27.90;;;;;;4373974;32;20537;-36
2021/04/18 00:18:09;;;;;;;2.80;0.62;;;13.80;28.00;;;;;;4373952;32;20090;-37
2021/04/18 00:20:36;;;;;;;0.70;0.40;;;13.70;28.10;;;;;;4374096;32;20091;-36
2021/04/18 00:23:03;;;;;;;4.55;0.90;;;13.60;28.20;;;;;;4373434;32;20074;-36
2021/04/18 00:25:29;;;;;;;1.40;0.50;;;13.60;28.30;;;;;;4373582;32;20089;-36
2021/04/18 00:27:56;;;;;;;1.05;0.60;;;13.40;28.40;;;;;;4373481;32;20086;-37
2021/04/18 00:30:22;;;;;;;0.95;0.60;;;13.30;29.10;;;;;;4373431;32;20063;-37
2021/04/18 00:32:49;;;;;;;1.62;0.60;;;13.30;28.50;;;;;;4373604;32;20068;-35
2021/04/18 00:35:16;;;;;;;1.95;0.52;;;13.20;28.50;;;;;;4371851;32;20050;-35
2021/04/18 00:37:43;;;;;;;2.17;0.50;;;13.20;28.60;;;;;;4374022;32;20097;-37
2021/04/18 00:40:12;;;;;;;4.03;0.80;;;13.10;28.60;;;;;;4375034;32;20054;-38
2021/04/18 00:42:39;;;;;;;1.27;0.62;;;13.00;28.70;;;;;;4375235;32;20058;-37
2021/04/18 00:45:07;;;;;;;3.42;0.70;;;13.00;28.70;;;;;;4374009;32;20066;-37
2021/04/18 00:47:33;;;;;;;2.67;0.50;;;12.90;28.70;;;;;;4373115;32;20066;-35
2021/04/18 00:50:04;;;;;;;6.30;1.08;;;12.90;28.70;;;;;;4373380;32;20097;-36
2021/04/18 00:52:30;;;;;;;14.15;0.55;;;12.90;28.70;;;;;;4371680;32;20108;-36
2021/04/18 00:54:57;;;;;;;3.65;0.73;;;12.90;28.70;;;;;;4373065;32;20095;-36
2021/04/18 00:57:23;;;;;;;5.28;0.55;;;12.90;28.60;;;;;;4373411;32;20510;-35
2021/04/18 00:59:50;;;;;;;1.80;0.65;;;13.00;28.70;;;;;;4371792;32;20062;-37
2021/04/18 01:02:17;;;;;;;1.90;0.60;;;13.00;28.40;;;;;;4343525;32;20151;-36
2021/04/18 01:04:43;;;;;;;2.92;0.55;;;13.00;28.40;;;;;;4355977;32;20081;-36
2021/04/18 01:07:09;;;;;;;3.30;0.82;;;13.00;28.40;;;;;;4356168;32;20070;-38
2021/04/18 01:09:36;;;;;;;3.10;0.80;;;12.90;28.40;;;;;;4356002;32;20086;-36
2021/04/18 01:12:03;;;;;;;3.47;1.08;;;12.90;28.50;;;;;;4343670;32;20112;-36
2021/04/18 01:14:29;;;;;;;3.97;1.00;;;12.80;28.50;;;;;;4355452;32;20184;-36
2021/04/18 01:16:56;;;;;;;2.83;0.60;;;12.80;28.50;;;;;;4355968;32;20065;-37
2021/04/18 01:19:22;;;;;;;0.35;0.30;;;12.80;28.60;;;;;;4355636;32;20081;-36
2021/04/18 01:21:48;;;;;;;0.62;0.40;;;12.70;28.60;;;;;;4355439;32;20069;-36
2021/04/18 01:24:15;;;;;;;2.22;0.80;;;12.70;28.70;;;;;;4366254;32;20082;-36
2021/04/18 01:26:42;;;;;;;1.30;0.32;;;12.70;28.70;;;;;;4370761;32;20058;-36
2021/04/18 01:29:09;;;;;;;0.20;0.15;;;12.70;28.70;;;;;;4346141;32;20595;-37
2021/04/18 01:31:35;;;;;;;3.83;0.50;;;12.60;28.70;;;;;;4370218;32;20084;-37
2021/04/18 01:34:01;;;;;;;4.28;0.65;;;12.60;28.80;;;;;;4370468;32;20542;-35
2021/04/18 01:36:28;;;;;;;2.55;0.70;;;12.60;28.70;;;;;;4333250;32;20162;-36
2021/04/18 01:38:54;;;;;;;3.67;0.80;;;12.60;28.60;;;;;;4370712;32;20101;-36
2021/04/18 01:41:21;;;;;;;0.22;0.22;;;12.60;28.70;;;;;;4372714;32;20065;-36
2021/04/18 01:43:47;;;;;;;2.25;0.57;;;12.60;28.70;;;;;;4372665;32;20101;-35
2021/04/18 01:46:14;;;;;;;0.60;0.43;;;12.60;28.60;;;;;;4372817;32;20519;-34
2021/04/18 01:48:40;;;;;;;0.30;0.30;;;12.60;28.90;;;;;;4372986;32;20069;-37
2021/04/18 01:51:08;;;;;;;5.72;0.77;;;12.60;28.70;;;;;;4372469;32;20085;-35
2021/04/18 01:53:35;;;;;;;1.30;0.20;;;12.60;28.60;;;;;;4372487;32;20190;-36
2021/04/18 01:56:02;;;;;;;0.47;0.30;;;12.60;28.60;;;;;;4372441;32;20106;-36
2021/04/18 01:58:29;;;;;;;1.87;0.60;;;12.60;28.60;;;;;;4372462;32;20078;-37
2021/04/18 02:00:55;;;;;;;2.83;0.40;;;12.60;28.60;;;;;;4383599;32;20482;-36
2021/04/18 02:03:22;;;;;;;4.78;0.55;;;12.60;28.60;;;;;;4372527;32;20475;-36
2021/04/18 02:05:48;;;;;;;0.90;0.45;;;12.60;28.50;;;;;;4372471;32;20081;-37
2021/04/18 02:08:15;;;;;;;5.78;0.70;;;12.60;28.70;;;;;;4372826;32;20537;-34
2021/04/18 02:10:41;;;;;;;1.50;0.70;;;12.60;28.60;;;;;;4371478;32;20070;-37
2021/04/18 02:13:08;;;;;;;4.65;0.50;;;12.60;28.40;;;;;;4373088;32;20073;-36
2021/04/18 02:15:34;;;;;;;3.35;0.60;;;12.60;28.50;;;;;;4372769;32;20066;-36
2021/04/18 02:18:01;;;;;;;2.03;0.30;;;12.70;28.30;;;;;;4354977;32;20075;-36
2021/04/18 02:20:27;;;;;;;4.55;0.40;;;12.80;28.30;;;;;;4355094;32;20147;-36
2021/04/18 02:22:54;;;;;;;7.80;0.82;;;12.90;28.40;;;;;;4357728;32;20116;-36
2021/04/18 02:25:20;;;;;;;1.55;1.00;;;13.00;28.20;;;;;;4345383;32;20090;-35
2021/04/18 02:27:46;;;;;;;1.67;0.80;;;13.20;28.20;;;;;;4371419;32;20558;-34
2021/04/18 02:30:13;;;;;;;0.90;0.20;;;13.30;28.00;;;;;;4373263;32;20081;-35
2021/04/18 02:32:41;;;;;;;1.85;0.40;;;13.40;27.90;;;;;;4372919;32;20082;-36
2021/04/18 02:35:09;;;;;;;3.62;0.45;;;13.50;27.80;;;;;;4372727;32;20604;-37
2021/04/18 02:37:36;;;;;;;2.28;0.50;;;13.70;27.70;;;;;;4372560;32;20086;-37
2021/04/18 02:40:03;;;;;;;0.90;0.60;;;13.90;27.60;;;;;;4372530;32;20104;-35
2021/04/18 02:42:29;;;;;;;1.98;0.90;;;14.00;27.40;;;;;;4372412;32;20081;-35
2021/04/18 02:44:55;;;;;;;0.73;0.40;;;14.10;27.10;;;;;;4359777;32;20078;-35
2021/04/18 02:47:22;;;;;;;1.70;0.55;;;14.20;27.00;;;;;;4372696;32;20078;-36
2021/04/18 02:49:49;;;;;;;2.17;0.68;;;14.20;26.80;;;;;;4372331;32;20139;-35
2021/04/18 02:52:15;;;;;;;3.30;0.90;;;14.30;26.80;;;;;;4360278;32;20546;-38
2021/04/18 02:54:42;;;;;;;6.68;0.88;;;14.30;26.80;;;;;;4373262;32;20134;-39
2021/04/18 02:57:08;;;;;;;3.72;0.90;;;14.40;26.80;;;;;;4374621;32;20097;-37
2021/04/18 02:59:35;;;;;;;1.65;0.50;;;14.40;26.80;;;;;;4374778;32;20540;-37
2021/04/18 03:02:01;;;;;;;2.15;0.57;;;14.40;26.70;;;;;;4373793;32;20134;-37
2021/04/18 03:04:28;;;;;;;3.67;0.65;;;14.50;26.60;;;;;;4375139;32;20439;-37
2021/04/18 03:06:54;;;;;;;8.40;0.90;;;14.60;26.80;;;;;;4374954;32;20110;-37
2021/04/18 03:09:21;;;;;;;4.47;1.02;;;14.60;26.70;;;;;;4374737;32;20068;-37
2021/04/18 03:11:47;;;;;;;9.65;1.52;;;14.60;26.60;;;;;;4373403;32;20174;-38
2021/04/18 03:14:14;;;;;;;5.18;2.30;;;14.70;26.70;;;;;;4374791;32;20078;-37
2021/04/18 03:16:40;;;;;;;3.25;0.90;;;14.70;26.60;;;;;;4375029;32;20066;-37
2021/04/18 03:19:07;;;;;;;6.70;1.45;;;14.80;26.60;;;;;;4371948;32;20073;-38
2021/04/18 03:21:34;;;;;;;7.68;2.00;;;14.80;26.50;;;;;;4372011;32;20101;-36
2021/04/18 03:24:00;;;;;;;8.35;2.22;;;14.90;26.60;;;;;;4369351;32;20077;-37
2021/04/18 03:26:27;;;;;;;3.72;1.90;;;14.90;26.50;;;;;;4387455;32;20072;-37
2021/04/18 03:28:53;;;;;;;5.37;1.27;;;15.00;26.50;;;;;;4387521;32;20098;-39
2021/04/18 03:31:20;;;;;;;7.97;2.28;;;15.10;26.50;;;;;;4387050;32;20153;-35
2021/04/18 03:33:46;;;;;;;6.10;1.62;;;15.20;26.50;;;;;;4386902;32;20051;-38
2021/04/18 03:36:12;;;;;;;8.35;1.58;;;15.30;26.40;;;;;;4386769;32;20134;-38
2021/04/18 03:38:39;;;;;;;6.75;1.70;;;15.40;26.20;;;;;;4386613;32;20089;-38
2021/04/18 03:41:06;;;;;;;8.50;2.17;;;15.40;26.20;;;;;;4386748;32;20101;-38
2021/04/18 03:43:32;;;;;;;8.27;2.47;;;15.50;26.20;;;;;;4374120;32;20529;-38
2021/04/18 03:45:59;;;;;;;6.53;2.20;;;15.60;26.30;;;;;;4386974;32;20084;-41
2021/04/18 03:48:25;;;;;;;6.12;1.52;;;15.80;26.00;;;;;;4386616;32;20080;-39
2021/04/18 03:50:52;;;;;;;3.70;0.82;;;15.90;26.00;;;;;;4389040;32;20141;-39
2021/04/18 03:53:19;;;;;;;2.55;1.35;;;15.90;25.70;;;;;;4389450;32;20537;-39
2021/04/18 03:55:45;;;;;;;7.25;2.75;;;16.10;25.80;;;;;;4389200;32;20074;-39
2021/04/18 03:58:12;;;;;;;6.12;1.12;;;16.20;25.60;;;;;;4389618;32;20262;-39
2021/04/18 04:00:38;;;;;;;4.97;1.75;;;16.30;25.50;;;;;;4389073;32;20072;-39
2021/04/18 04:03:04;;;;;;;14.07;5.68;;;16.50;25.50;;;;;;4389497;32;20535;-37
2021/04/18 04:05:31;;;;;;;6.55;2.10;;;16.70;25.40;;;;;;4389439;32;20590;-38
2021/04/18 04:07:58;;;;;;;2.15;1.20;;;16.80;25.40;;;;;;4388903;32;20105;-38
2021/04/18 04:10:24;;;;;;;5.85;1.75;;;17.10;25.20;;;;;;4387309;32;20173;-38
2021/04/18 04:12:51;;;;;;;1.80;0.80;;;17.10;24.80;;;;;;4389392;32;20065;-37
2021/04/18 04:15:19;;;;;;;2.37;1.05;;;17.30;24.80;;;;;;4387522;32;20526;-38
2021/04/18 04:17:45;;;;;;;4.95;1.85;;;17.50;24.70;;;;;;4388881;32;20157;-39
2021/04/18 04:20:13;;;;;;;5.60;1.15;;;17.60;24.70;;;;;;4388919;32;20097;-39
2021/04/18 04:22:39;;;;;;;4.43;1.58;;;17.80;24.50;;;;;;4387507;32;20061;-39
2021/04/18 04:25:07;;;;;;;0.62;0.50;;;18.10;24.30;;;;;;4373954;32;20517;-39
2021/04/18 04:27:33;;;;;;;12.00;3.17;;;18.20;24.10;;;;;;4373566;32;20089;-39
2021/04/18 04:30:00;;;;;;;3.67;1.50;;;18.40;24.00;;;;;;4372075;32;20521;-39
2021/04/18 04:32:26;;;;;;;3.60;1.15;;;18.60;23.90;;;;;;4373976;32;20153;-38
2021/04/18 04:34:53;;;;;;;7.93;1.25;;;18.80;23.70;;;;;;4374154;32;20078;-40
2021/04/18 04:37:19;;;;;;;0.88;0.45;;;19.00;23.80;;;;;;4384568;32;20089;-40
2021/04/18 04:39:46;;;;;;;6.53;2.53;;;19.10;23.40;;;;;;4373848;32;20074;-40
2021/04/18 04:42:12;;;;;;;2.15;0.82;;;19.30;23.30;;;;;;4371665;32;20058;-40
2021/04/18 04:44:38;;;;;;;5.18;1.12;;;19.50;23.20;;;;;;4373045;32;20198;-40
2021/04/18 04:47:05;;;;;;;7.50;2.15;;;19.70;22.60;;;;;;4373426;32;20532;-40
2021/04/18 04:49:31;;;;;;;1.98;0.43;;;19.90;22.60;;;;;;4372850;32;20058;-40
2021/04/18 04:51:58;;;;;;;3.20;0.85;;;20.10;22.40;;;;;;4373347;32;20129;-40
2021/04/18 04:54:25;;;;;;;6.95;1.58;;;20.30;22.60;;;;;;4373273;32;20089;-35
2021/04/18 04:56:51;;;;;;;4.12;1.42;;;20.50;22.40;;;;;;4372184;32;20061;-41
2021/04/18 04:59:18;;;;;;;6.57;1.50;;;20.70;22.10;;;;;;4373176;32;20066;-41
2021/04/18 05:01:45;;;;;;;6.00;1.45;;;21.00;22.00;;;;;;4373405;32;20109;-41
2021/04/18 05:04:11;;;;;;;1.65;0.40;;;21.30;21.90;;;;;;4372788;32;20074;-41
2021/04/18 05:06:37;;;;;;;5.95;1.83;;;21.50;21.60;;;;;;4371618;32;20061;-41
2021/04/18 05:09:04;;;;;;;9.30;1.95;;;21.70;21.00;;;;;;4373321;32;20158;-41
2021/04/18 05:11:31;;;;;;;4.03;1.62;;;22.00;21.00;;;;;;4372673;32;20061;-41
2021/04/18 05:13:57;;;;;;;3.62;1.20;;;22.30;21.20;;;;;;4373236;32;20653;-41
2021/04/18 05:16:24;;;;;;;6.22;1.80;;;22.30;20.90;;;;;;4373332;32;20069;-41
2021/04/18 05:18:50;;;;;;;11.55;1.42;;;22.30;20.90;;;;;;4373094;32;20070;-42
2021/04/18 05:21:17;;;;;;;5.90;1.30;;;22.20;20.90;;;;;;4372763;32;20078;-41
2021/04/18 05:23:43;;;;;;;16.27;1.85;;;22.10;20.90;;;;;;4376536;32;20222;-39
2021/04/18 05:26:10;;;;;;;8.07;1.77;;;22.10;21.10;;;;;;4372892;32;20106;-40
2021/04/18 05:28:37;;;;;;;5.93;1.90;;;22.00;21.10;;;;;;4373955;32;20078;-40
2021/04/18 05:31:04;;;;;;;8.10;1.75;;;22.00;20.90;;;;;;4374388;32;20518;-42
2021/04/18 05:33:30;;;;;;;6.60;1.35;;;22.00;20.90;;;;;;4373056;32;20150;-40
2021/04/18 05:35:57;;;;;;;8.65;1.60;;;22.00;21.00;;;;;;4373088;32;20509;-38
2021/04/18 05:38:23;;;;;;;3.75;1.33;;;22.00;20.80;;;;;;4373064;32;20054;-41
2021/04/18 05:40:50;;;;;;;4.90;2.03;;;21.90;20.80;;;;;;4372867;32;20077;-40
2021/04/18 05:43:17;;;;;;;8.20;1.08;;;21.90;20.80;;;;;;4373083;32;20155;-41
2021/04/18 05:45:43;;;;;;;5.75;1.50;;;21.80;20.80;;;;;;4372692;32;20223;-39
2021/04/18 05:48:10;;;;;;;9.00;1.33;;;21.70;21.00;;;;;;4372668;32;20085;-41
2021/04/18 05:50:38;;;;;;;18.17;3.45;;;21.80;21.10;;;;;;4371391;32;20066;-42
2021/04/18 05:53:04;;;;;;;4.05;1.23;;;22.00;21.20;;;;;;4371227;32;20081;-42
2021/04/18 05:55:31;;;;;;;6.57;1.40;;;22.20;20.80;;;;;;4371151;32;20157;-40
2021/04/18 05:57:57;;;;;;;2.92;1.75;;;22.30;20.90;;;;;;4372737;32;20058;-43
2021/04/18 06:00:24;;;;;;;5.32;1.37;;;22.50;20.90;;;;;;4373047;32;20097;-41
2021/04/18 06:02:50;;;;;;;4.75;1.42;;;22.80;20.90;;;;;;4374448;32;20526;-41
2021/04/18 06:05:17;;;;;;;6.45;1.50;;;23.00;20.70;;;;;;4375784;32;20065;-42
2021/04/18 06:07:44;;;;;;;4.87;1.52;;;23.20;20.40;;;;;;4375613;32;20062;-42
2021/04/18 06:10:11;;;;;;;8.30;1.60;;;23.30;20.40;;;;;;4374234;32;20074;-42
2021/04/18 06:12:38;;;;;;;6.68;1.87;;;23.50;20.40;;;;;;4375372;32;20070;-42
2021/04/18 06:15:06;;;;;;;15.05;2.25;;;23.60;20.30;;;;;;4375932;32;20675;-40
2021/04/18 06:17:33;;;;;;;10.00;1.62;;;23.70;20.90;;;;;;4376020;32;20051;-43
2021/04/18 06:20:00;;;;;;;8.82;2.47;;;23.70;20.40;;;;;;4358020;32;20077;-39
2021/04/18 06:22:27;;;;;;;6.80;1.92;;;23.90;20.30;;;;;;4345964;32;20070;-43
2021/04/18 06:24:53;;;;;;;9.30;3.35;;;24.00;20.10;;;;;;4358365;32;20501;-41
2021/04/18 06:27:20;;;;;;;7.82;2.78;;;24.20;20.00;;;;;;4345807;32;20164;-40
2021/04/18 06:29:46;;;;;;;16.48;3.25;;;24.40;19.80;;;;;;4357689;32;20074;-42
2021/04/18 06:32:13;;;;;;;18.33;2.58;;;24.60;19.70;;;;;;4357684;32;20097;-43
2021/04/18 06:34:39;;;;;;;6.35;1.70;;;24.90;20.00;;;;;;4357675;32;20076;-41
2021/04/18 06:37:06;;;;;;;8.98;1.40;;;25.20;19.70;;;;;;4357921;32;20078;-40
2021/04/18 06:39:33;;;;;;;6.50;2.08;;;25.40;19.70;;;;;;4357901;32;20058;-40
2021/04/18 06:42:03;;;;;;;6.70;2.10;;;25.80;19.40;;;;;;4357589;32;20059;-42
2021/04/18 06:44:30;;;;;;;10.13;1.75;;;26.00;19.30;;;;;;4333765;32;20561;-42
2021/04/18 06:47:00;;;;;;;7.28;1.60;;;26.20;19.20;;;;;;4357886;32;20062;-42
2021/04/18 06:49:27;;;;;;;6.78;1.67;;;26.40;19.40;;;;;;4357947;32;20069;-41
2021/04/18 06:51:54;;;;;;;7.18;1.55;;;26.50;19.20;;;;;;4369276;32;20174;-42
2021/04/18 06:54:21;;;;;;;9.05;2.83;;;26.50;19.00;;;;;;4373240;32;20305;-43
2021/04/18 06:56:48;;;;;;;6.72;1.55;;;26.40;19.10;;;;;;4375105;32;20101;-42
2021/04/18 06:59:14;;;;;;;10.95;2.60;;;26.10;18.60;;;;;;4375153;32;20065;-40
2021/04/18 07:01:41;;;;;;;4.65;1.55;;;26.00;19.00;;;;;;4361278;32;20081;-42
2021/04/18 07:04:21;;;;;;;5.07;1.90;;;25.80;19.30;;;;;;4375242;32;20069;-42
2021/04/18 07:06:53;;;;;;;7.93;1.83;;;25.80;19.10;;;;;;4374929;32;20490;-42
2021/04/18 07:09:22;;;;;;;8.15;2.42;;;25.70;19.10;;;;;;4375193;32;20073;-41
2021/04/18 07:12:00;;;;;;;5.32;1.80;;;25.70;19.30;;;;;;4373337;32;20062;-42
2021/04/18 07:14:31;;;;;;;13.65;2.62;;;25.60;19.10;;;;;;4374629;32;20144;-41
2021/04/18 07:17:12;;;;;;;5.53;1.95;;;25.40;19.60;;;;;;4375275;32;20077;-39
2021/04/18 07:19:50;;;;;;;6.00;1.83;;;25.20;19.70;;;;;;4372936;32;20101;-42
2021/04/18 07:22:29;;;;;;;9.77;2.50;;;25.00;19.80;;;;;;4374787;32;20089;-41
2021/04/18 07:25:01;;;;;;;8.32;2.85;;;24.90;19.90;;;;;;4374678;32;20469;-41
2021/04/18 07:27:47;;;;;;;9.23;2.95;;;24.80;20.10;;;;;;4357052;32;20094;-39
2021/04/18 07:30:19;;;;;;;20.75;3.20;;;25.00;20.00;;;;;;4357147;32;20070;-39
2021/04/18 07:32:46;;;;;;;4.82;1.67;;;25.00;19.50;;;;;;4356730;32;20113;-42
2021/04/18 07:35:50;;;;;;;10.55;2.58;;;25.10;19.30;;;;;;4357031;32;20182;-39
2021/04/18 07:38:25;;;;;;;4.15;1.85;;;25.20;19.60;;;;;;4327000;33;20103;-41
2021/04/18 07:40:56;;;;;;;;;;;25.30;19.20;;;;;;4315534;33;20078;-41
2021/04/18 07:43:23;;;;;;;5.40;1.92;;;25.30;19.40;;;;;;4326912;33;19997;-42
2021/04/18 07:45:50;;;;;;;6.22;1.70;;;25.40;19.20;;;;;;4327598;33;20152;-43
2021/04/18 07:48:18;;;;;;;4.28;2.17;;;25.30;19.00;;;;;;4327297;33;20071;-42
2021/04/18 07:50:47;;;;;;;6.82;2.15;;;25.20;18.90;;;;;;4315136;33;20067;-41
2021/04/18 07:53:20;;;;;;;5.65;2.05;;;25.20;19.10;;;;;;4315163;33;20166;-40
2021/04/18 07:55:47;;;;;;;4.85;2.40;;;25.20;19.20;;;;;;4315128;33;20486;-42
2021/04/18 07:58:14;;;;;;;4.50;1.87;;;25.20;19.20;;;;;;4314646;33;20142;-40
2021/04/18 08:00:40;;;;;;;14.57;3.65;;;25.40;18.80;;;;;;4314582;33;20101;-40
2021/04/18 08:03:07;;;;;;;7.95;2.08;;;25.40;18.70;;;;;;4326641;33;20086;-41
2021/04/18 08:05:34;;;;;;;13.02;2.55;;;25.50;18.90;;;;;;4326499;33;20617;-41
2021/04/18 08:08:06;;;;;;;10.68;1.52;;;25.60;19.00;;;;;;4344472;32;20074;-40
2021/04/18 08:10:45;;;;;;;4.37;1.40;;;25.80;19.00;;;;;;4374428;32;20183;-42
2021/04/18 08:13:23;;;;;;;3.05;1.30;;;26.00;18.50;;;;;;4374257;32;20064;-41
2021/04/18 08:15:56;;;;;;;9.63;1.52;;;26.20;18.20;;;;;;4373821;32;20105;-40
2021/04/18 08:18:45;;;;;;;5.55;1.73;;;26.30;18.10;;;;;;4373837;32;20073;-41
2021/04/18 08:21:36;;;;;;;6.07;1.33;;;26.40;18.30;;;;;;4373512;32;20502;-40
2021/04/18 08:24:06;;;;;;;4.18;0.70;;;26.40;18.10;;;;;;4372356;32;20516;-39
2021/04/18 08:26:34;;;;;;;0.93;0.50;;;26.40;17.80;;;;;;4373790;32;20066;-40
2021/04/18 08:29:04;;;;;;;1.35;0.43;;;26.60;17.50;;;;;;4373656;32;20474;-42
2021/04/18 08:31:56;;;;;;;1.10;0.28;;;26.90;17.20;;;;;;4373801;32;20073;-39
2021/04/18 08:34:33;;;;;;;0.62;0.30;;;27.20;16.90;;;;;;4365084;32;20069;-40
2021/04/18 08:37:01;;;;;;;0.45;0.20;;;27.40;17.00;;;;;;4373583;32;20514;-41
2021/04/18 08:39:34;;;;;;;1.83;0.50;;;27.60;17.00;;;;;;4373494;32;20097;-40
2021/04/18 08:42:03;;;;;;;1.52;0.60;;;27.70;16.90;;;;;;4373310;32;20073;-41
2021/04/18 08:44:39;;;;;;;2.60;0.50;;;27.80;16.90;;;;;;4373462;32;20534;-41
2021/04/18 08:47:14;;;;;;;2.10;0.30;;;27.80;17.00;;;;;;4373507;32;20548;-39
2021/04/18 08:49:48;;;;;;;0.37;0.28;;;27.90;17.00;;;;;;4373454;32;20149;-41
2021/04/18 08:52:28;;;;;;;0.45;0.30;;;27.90;17.10;;;;;;4373722;32;20073;-41
2021/04/18 08:54:57;;;;;;;1.62;0.30;;;27.80;16.70;;;;;;4373288;32;20158;-42
2021/04/18 08:57:26;;;;;;;0.65;0.35;;;27.80;17.00;;;;;;4373116;32;20549;-40
2021/04/18 08:59:56;;;;;;;3.05;0.60;;;27.70;16.70;;;;;;4373516;32;20070;-41
2021/04/18 09:02:24;;;;;;;2.17;0.30;;;27.60;16.80;;;;;;4372129;32;20089;-41
2021/04/18 09:04:56;;;;;;;1.30;0.40;;;27.60;16.60;;;;;;4373264;32;20089;-41
2021/04/18 09:07:25;;;;;;;1.62;0.30;;;27.50;16.70;;;;;;4373648;32;20061;-41
2021/04/18 09:09:53;;;;;;;6.53;0.37;;;27.50;16.80;;;;;;4373374;32;20078;-40
2021/04/18 09:12:20;;;;;;;3.12;0.30;;;27.40;16.50;;;;;;4343094;32;20096;-41
2021/04/18 09:14:48;;;;;;;1.17;0.22;;;27.30;16.40;;;;;;4355819;32;20078;-42
2021/04/18 09:17:22;;;;;;;0.77;0.20;;;27.30;16.60;;;;;;4355371;32;20102;-41
2021/04/18 09:20:05;;;;;;;0.98;0.40;;;27.30;16.70;;;;;;4355560;32;20148;-41
2021/04/18 09:22:33;;;;;;;2.78;0.45;;;27.30;16.70;;;;;;4343265;32;20070;-41
2021/04/18 09:25:14;;;;;;;2.35;0.57;;;27.20;16.40;;;;;;4355549;32;20316;-41
2021/04/18 09:27:43;;;;;;;0.25;0.25;;;27.10;16.40;;;;;;4355575;32;20066;-38
2021/04/18 09:30:12;;;;;;;1.10;0.50;;;26.90;16.40;;;;;;4355516;32;20560;-40
2021/04/18 09:32:50;;;;;;;1.55;0.43;;;26.60;16.20;;;;;;4355690;32;20066;-41
2021/04/18 09:35:21;;;;;;;3.65;0.65;;;26.40;16.30;;;;;;4355734;32;20147;-40
2021/04/18 09:38:01;;;;;;;4.03;0.50;;;26.40;16.50;;;;;;4360351;32;20523;-42
2021/04/18 09:40:36;;;;;;;4.43;0.43;;;26.30;16.40;;;;;;4348665;32;20593;-41
2021/04/18 09:43:05;;;;;;;;;;;26.30;16.40;;;;;;4373306;32;20066;-42
2021/04/18 09:45:32;;;;;;;1.15;0.40;;;26.30;16.50;;;;;;4393881;32;20060;-40
2021/04/18 09:48:12;;;;;;;1.70;0.52;;;26.30;16.70;;;;;;4391989;32;20062;-40
2021/04/18 09:50:38;;;;;;;1.67;0.60;;;26.30;17.00;;;;;;4392369;32;20543;-41
2021/04/18 09:53:22;;;;;;;1.58;0.50;;;26.20;17.10;;;;;;4393288;32;20457;-42
2021/04/18 09:56:07;;;;;;;2.05;0.52;;;26.20;17.10;;;;;;4391544;32;20535;-41
2021/04/18 09:58:35;;;;;;;2.45;0.52;;;26.20;17.10;;;;;;4393046;32;20093;-41
2021/04/18 10:01:02;;;;;;;0.37;0.25;;;26.30;17.10;;;;;;4391434;32;20097;-40
2021/04/18 10:03:44;;;;;;;0.82;0.40;;;26.30;17.10;;;;;;4392584;32;20147;-40
2021/04/18 10:06:10;;;;;;;0.10;0.10;;;26.30;17.20;;;;;;4393097;32;20137;-40
2021/04/18 10:08:38;;;;;;;3.10;0.50;;;26.30;16.90;;;;;;4392758;32;20061;-39
2021/04/18 10:11:08;;;;;;;1.08;0.52;;;26.40;17.10;;;;;;4393057;32;20062;-39
2021/04/18 10:13:51;;;;;;;4.32;0.80;;;26.60;17.20;;;;;;4392767;32;20140;-41
2021/04/18 10:16:43;;;;;;;3.12;0.40;;;26.50;16.90;;;;;;4392896;32;20067;-39
2021/04/18 10:19:21;;;;;;;2.60;0.37;;;26.40;17.40;;;;;;4392413;32;20181;-40
2021/04/18 10:22:10;;;;;;;6.57;0.30;;;26.30;16.80;;;;;;4392760;32;20167;-41
2021/04/18 10:24:42;;;;;;;2.40;0.70;;;26.20;16.90;;;;;;4372935;32;20106;-41
2021/04/18 10:27:10;;;;;;;1.60;0.32;;;26.20;16.80;;;;;;4375223;32;20066;-40
2021/04/18 10:29:37;;;;;;;10.55;1.08;;;26.10;16.80;;;;;;4374989;32;20261;-40
2021/04/18 10:32:04;;;;;;;0.68;0.30;;;26.10;16.70;;;;;;4375031;32;20916;-40
2021/04/18 10:34:30;;;;;;;1.58;0.68;;;26.10;17.10;;;;;;4375095;32;20058;-40
2021/04/18 10:36:57;;;;;;;0.52;0.20;;;26.10;16.90;;;;;;4374821;32;20077;-39
2021/04/18 10:39:24;;;;;;;1.67;0.70;;;26.10;16.80;;;;;;4344987;33;20091;-41
2021/04/18 10:41:51;;;;;;;10.25;0.50;;;26.00;16.60;;;;;;4344995;33;20111;-40
2021/04/18 10:44:17;;;;;;;4.37;0.93;;;26.00;16.60;;;;;;4344614;33;20154;-40
2021/04/18 10:46:45;;;;;;;1.05;0.40;;;25.90;16.70;;;;;;4345093;33;20070;-41
2021/04/18 10:49:12;;;;;;;3.50;0.40;;;26.00;16.80;;;;;;4342513;32;20067;-41
2021/04/18 10:51:38;;;;;;;4.37;0.37;;;25.90;16.80;;;;;;4342661;33;20066;-40
2021/04/18 10:54:05;;;;;;;3.28;0.30;;;26.00;16.90;;;;;;4342605;33;20090;-40
2021/04/18 10:56:32;;;;;;;1.60;0.50;;;26.10;16.70;;;;;;4342530;33;20067;-41
2021/04/18 10:58:59;;;;;;;1.52;0.40;;;26.10;16.70;;;;;;4342254;33;20102;-41
2021/04/18 11:01:25;;;;;;;5.47;0.47;;;26.10;16.60;;;;;;4342236;33;20531;-40
2021/04/18 11:03:53;;;;;;;0.95;0.20;;;26.00;16.80;;;;;;4342201;33;20209;-40
2021/04/18 11:06:19;;;;;;;0.73;0.30;;;25.90;16.70;;;;;;4342263;33;20585;-39
2021/04/18 11:08:46;;;;;;;2.40;0.30;;;26.00;16.70;;;;;;4341887;33;20074;-38
2021/04/18 11:11:12;;;;;;;0.40;0.35;;;26.10;16.60;;;;;;4369913;32;20058;-40
2021/04/18 11:13:40;;;;;;;2.42;0.40;;;26.10;16.90;;;;;;4374710;32;20074;-40
2021/04/18 11:16:07;;;;;;;3.72;0.30;;;26.20;16.40;;;;;;4372761;32;20498;-41
2021/04/18 11:18:33;;;;;;;5.37;0.50;;;26.10;16.30;;;;;;4374524;32;20149;-41
2021/04/18 11:21:00;;;;;;;1.75;0.43;;;26.10;16.40;;;;;;4374198;32;20154;-40
2021/04/18 11:23:27;;;;;;;5.20;0.52;;;25.90;16.40;;;;;;4374618;32;20619;-41
2021/04/18 11:25:53;;;;;;;2.03;0.50;;;25.90;16.40;;;;;;4374335;32;20153;-41
2021/04/18 11:28:20;;;;;;;1.27;0.45;;;25.80;16.30;;;;;;4374757;32;20074;-41
2021/04/18 11:30:46;;;;;;;3.10;0.30;;;25.80;16.30;;;;;;4374535;32;20163;-41
2021/04/18 11:33:13;;;;;;;1.90;0.30;;;26.00;16.40;;;;;;4374691;32;20172;-41
2021/04/18 11:35:39;;;;;;;3.92;0.57;;;26.10;16.50;;;;;;4374222;32;20062;-40
2021/04/18 11:38:06;;;;;;;3.85;0.40;;;26.10;16.30;;;;;;4374509;32;20146;-40
2021/04/18 11:40:34;;;;;;;3.60;0.40;;;26.10;16.30;;;;;;4374282;32;20171;-40
2021/04/18 11:43:03;;;;;;;3.78;0.90;;;26.00;16.20;;;;;;4374180;32;20105;-41
2021/04/18 11:45:29;;;;;;;6.53;0.93;;;26.00;16.20;;;;;;4374472;32;20069;-41
2021/04/18 11:47:57;;;;;;;3.60;0.50;;;26.00;16.30;;;;;;4374307;32;20069;-40
2021/04/18 11:50:24;;;;;;;1.65;0.35;;;26.10;16.20;;;;;;4374120;32;20177;-41
2021/04/18 11:52:51;;;;;;;0.62;0.30;;;26.20;16.10;;;;;;4374031;32;20050;-40
2021/04/18 11:55:20;;;;;;;7.57;0.52;;;26.20;16.10;;;;;;4374353;32;20537;-41
2021/04/18 11:57:47;;;;;;;3.55;0.57;;;26.30;16.20;;;;;;4372786;32;20070;-39
2021/04/18 12:00:14;;;;;;;3.70;0.80;;;26.30;16.40;;;;;;4373023;32;20147;-40
2021/04/18 12:02:41;;;;;;;6.07;1.20;;;26.30;16.50;;;;;;4374058;32;20070;-41
2021/04/18 12:05:08;;;;;;;5.40;1.02;;;26.10;16.40;;;;;;4373949;32;20092;-41
2021/04/18 12:07:34;;;;;;;6.32;1.08;;;26.00;16.40;;;;;;4372357;32;20073;-42
2021/04/18 12:10:01;;;;;;;2.12;0.60;;;25.80;16.50;;;;;;4372043;32;20070;-41
2021/04/18 12:12:27;;;;;;;2.55;0.70;;;25.80;16.50;;;;;;4373859;32;20587;-41
2021/04/18 12:14:55;;;;;;;3.28;0.85;;;25.70;16.60;;;;;;4372740;32;20086;-40
2021/04/18 12:17:21;;;;;;;2.25;0.62;;;25.70;16.60;;;;;;4374341;32;20070;-40
2021/04/18 12:19:48;;;;;;;2.28;0.68;;;25.50;16.80;;;;;;4374713;32;20165;-42
2021/04/18 12:22:15;;;;;;;3.00;0.95;;;25.50;16.90;;;;;;4374236;32;20537;-41
2021/04/18 12:24:42;;;;;;;1.00;0.50;;;25.60;16.90;;;;;;4372430;32;20065;-41
2021/04/18 12:27:09;;;;;;;3.15;0.85;;;25.50;16.70;;;;;;4373424;32;20066;-41
2021/04/18 12:29:35;;;;;;;1.65;0.77;;;25.60;16.90;;;;;;4373718;32;20102;-40
2021/04/18 12:32:02;;;;;;;1.42;0.40;;;25.60;17.00;;;;;;4373372;32;20058;-41
2021/04/18 12:34:29;;;;;;;5.12;0.50;;;25.70;16.80;;;;;;4373416;32;20062;-41
2021/04/18 12:36:55;;;;;;;4.12;0.60;;;25.80;16.90;;;;;;4373511;32;20097;-42
2021/04/18 12:39:22;;;;;;;1.87;0.70;;;25.70;16.50;;;;;;4373290;32;20076;-39
2021/04/18 12:41:48;;;;;;;0.70;0.22;;;25.60;16.40;;;;;;4373713;32;20066;-40
2021/04/18 12:44:15;;;;;;;2.75;0.50;;;25.60;16.50;;;;;;4372949;32;20085;-41
2021/04/18 12:46:41;;;;;;;1.15;0.50;;;25.40;16.50;;;;;;4371935;32;20141;-42
2021/04/18 12:49:08;;;;;;;1.00;0.40;;;25.30;16.50;;;;;;4373344;32;20455;-41
2021/04/18 12:51:34;;;;;;;1.17;0.30;;;25.30;16.50;;;;;;4373319;32;20058;-41